sensor_id;sensor_type;location;lat;lon;timestamp;pressure;altitude;pressure_sealevel;temperature;humidity
73842;BME280;62184;52.006;5.924;2024-01-10T00:02:13;102408.59;;;1.50;53.75
73842;BME280;62184;52.006;5.924;2024-01-10T00:04:40;102405.16;;;1.52;53.93
73842;BME280;62184;52.006;5.924;2024-01-10T00:07:06;102405.13;;;1.51;53.79
73842;BME280;62184;52.006;5.924;2024-01-10T00:09:35;102410.06;;;1.43;52.66
73842;BME280;62184;52.006;5.924;2024-01-10T00:12:02;102407.50;;;1.45;53.36
73842;BME280;62184;52.006;5.924;2024-01-10T00:14:28;102400.41;;;1.42;53.15
73842;BME280;62184;52.006;5.924;2024-01-10T00:16:54;102404.78;;;1.42;53.68
73842;BME280;62184;52.006;5.924;2024-01-10T00:19:21;102397.53;;;1.36;51.42
73842;BME280;62184;52.006;5.924;2024-01-10T00:21:47;102390.53;;;1.37;51.24
73842;BME280;62184;52.006;5.924;2024-01-10T00:24:14;102384.38;;;1.36;51.02
73842;BME280;62184;52.006;5.924;2024-01-10T00:26:43;102389.63;;;1.36;50.96
73842;BME280;62184;52.006;5.924;2024-01-10T00:29:09;102384.38;;;1.36;51.39
73842;BME280;62184;52.006;5.924;2024-01-10T00:31:36;102384.31;;;1.35;52.60
73842;BME280;62184;52.006;5.924;2024-01-10T00:34:03;102384.28;;;1.33;52.88
73842;BME280;62184;52.006;5.924;2024-01-10T00:36:29;102376.13;;;1.27;52.13
73842;BME280;62184;52.006;5.924;2024-01-10T00:38:55;102388.28;;;1.23;52.19
73842;BME280;62184;52.006;5.924;2024-01-10T00:41:22;102374.19;;;1.21;52.13
73842;BME280;62184;52.006;5.924;2024-01-10T00:43:51;102378.41;;;1.18;51.94
73842;BME280;62184;52.006;5.924;2024-01-10T00:46:17;102382.00;;;1.20;52.38
73842;BME280;62184;52.006;5.924;2024-01-10T00:48:44;102375.84;;;1.19;52.56
73842;BME280;62184;52.006;5.924;2024-01-10T00:51:10;102369.88;;;1.23;53.36
73842;BME280;62184;52.006;5.924;2024-01-10T00:53:36;102372.38;;;1.20;52.64
73842;BME280;62184;52.006;5.924;2024-01-10T00:56:04;102375.84;;;1.19;52.53
73842;BME280;62184;52.006;5.924;2024-01-10T00:58:31;102378.47;;;1.19;52.65
73842;BME280;62184;52.006;5.924;2024-01-10T01:01:00;102374.09;;;1.20;52.60
73842;BME280;62184;52.006;5.924;2024-01-10T01:03:26;102376.81;;;1.21;52.82
73842;BME280;62184;52.006;5.924;2024-01-10T01:05:53;102375.84;;;1.19;52.60
73842;BME280;62184;52.006;5.924;2024-01-10T01:08:19;102369.81;;;1.22;53.03
73842;BME280;62184;52.006;5.924;2024-01-10T01:10:46;102378.38;;;1.16;52.23
73842;BME280;62184;52.006;5.924;2024-01-10T01:13:12;102377.63;;;1.20;52.62
73842;BME280;62184;52.006;5.924;2024-01-10T01:15:39;102374.09;;;1.20;51.75
73842;BME280;62184;52.006;5.924;2024-01-10T01:18:08;102370.53;;;1.18;51.98
73842;BME280;62184;52.006;5.924;2024-01-10T01:20:34;102369.69;;;1.19;52.46
73842;BME280;62184;52.006;5.924;2024-01-10T01:23:01;102371.25;;;1.14;51.35
73842;BME280;62184;52.006;5.924;2024-01-10T01:25:27;102369.59;;;1.16;51.80
73842;BME280;62184;52.006;5.924;2024-01-10T01:27:54;102366.13;;;1.17;51.57
73842;BME280;62184;52.006;5.924;2024-01-10T01:30:20;102377.53;;;1.17;51.71
73842;BME280;62184;52.006;5.924;2024-01-10T01:32:46;102362.59;;;1.16;51.84
73842;BME280;62184;52.006;5.924;2024-01-10T01:35:15;102371.38;;;1.17;52.00
73842;BME280;62184;52.006;5.924;2024-01-10T01:37:42;102364.13;;;1.11;51.41
73842;BME280;62184;52.006;5.924;2024-01-10T01:40:09;102369.41;;;1.11;51.21
73842;BME280;62184;52.006;5.924;2024-01-10T01:42:36;102358.03;;;1.12;51.45
73842;BME280;62184;52.006;5.924;2024-01-10T01:45:02;102364.94;;;1.09;51.02
73842;BME280;62184;52.006;5.924;2024-01-10T01:47:30;102357.97;;;1.11;51.71
73842;BME280;62184;52.006;5.924;2024-01-10T01:49:56;102357.13;;;1.12;52.07
73842;BME280;62184;52.006;5.924;2024-01-10T01:52:27;102349.31;;;1.13;52.00
73842;BME280;62184;52.006;5.924;2024-01-10T01:54:55;102349.91;;;1.06;50.73
73842;BME280;62184;52.006;5.924;2024-01-10T01:57:22;102352.66;;;1.09;51.27
73842;BME280;62184;52.006;5.924;2024-01-10T01:59:49;102346.31;;;1.04;50.89
73842;BME280;62184;52.006;5.924;2024-01-10T02:02:16;102352.44;;;1.03;50.63
73842;BME280;62184;52.006;5.924;2024-01-10T02:04:46;102347.28;;;1.06;51.45
73842;BME280;62184;52.006;5.924;2024-01-10T02:07:12;102346.41;;;1.06;50.34
73842;BME280;62184;52.006;5.924;2024-01-10T02:09:41;102337.66;;;1.07;50.58
73842;BME280;62184;52.006;5.924;2024-01-10T02:12:08;102341.13;;;1.06;51.21
73842;BME280;62184;52.006;5.924;2024-01-10T02:14:35;102335.09;;;1.08;51.58
73842;BME280;62184;52.006;5.924;2024-01-10T02:17:02;102334.06;;;1.05;50.17
73842;BME280;62184;52.006;5.924;2024-01-10T02:19:29;102333.03;;;1.01;50.47
73842;BME280;62184;52.006;5.924;2024-01-10T02:21:55;102333.25;;;1.06;50.77
73842;BME280;62184;52.006;5.924;2024-01-10T02:24:22;102329.66;;;1.04;50.91
73842;BME280;62184;52.006;5.924;2024-01-10T02:26:51;102328.81;;;1.05;51.28
73842;BME280;62184;52.006;5.924;2024-01-10T02:29:17;102325.22;;;1.03;51.00
73842;BME280;62184;52.006;5.924;2024-01-10T02:31:44;102321.66;;;1.01;51.37
73842;BME280;62184;52.006;5.924;2024-01-10T02:34:10;102316.13;;;0.95;50.81
73842;BME280;62184;52.006;5.924;2024-01-10T02:36:37;102323.97;;;0.93;50.96
73842;BME280;62184;52.006;5.924;2024-01-10T02:39:03;102320.41;;;0.91;51.17
73842;BME280;62184;52.006;5.924;2024-01-10T02:41:30;102319.50;;;0.90;51.05
73842;BME280;62184;52.006;5.924;2024-01-10T02:43:59;102315.97;;;0.90;51.06
73842;BME280;62184;52.006;5.924;2024-01-10T02:46:25;102316.75;;;0.87;51.00
73842;BME280;62184;52.006;5.924;2024-01-10T02:48:52;102323.66;;;0.84;50.98
73842;BME280;62184;52.006;5.924;2024-01-10T02:51:18;102316.59;;;0.83;50.80
73842;BME280;62184;52.006;5.924;2024-01-10T02:53:44;102318.13;;;0.78;50.97
73842;BME280;62184;52.006;5.924;2024-01-10T02:56:11;102316.84;;;0.67;49.48
73842;BME280;62184;52.006;5.924;2024-01-10T02:58:37;102311.75;;;0.71;50.97
73842;BME280;62184;52.006;5.924;2024-01-10T03:01:06;102311.81;;;0.73;50.91
73842;BME280;62184;52.006;5.924;2024-01-10T03:03:33;102313.41;;;0.69;50.85
73842;BME280;62184;52.006;5.924;2024-01-10T03:05:59;102309.94;;;0.70;50.20
73842;BME280;62184;52.006;5.924;2024-01-10T03:08:25;102315.22;;;0.70;50.68
73842;BME280;62184;52.006;5.924;2024-01-10T03:10:52;102317.91;;;0.72;50.91
73842;BME280;62184;52.006;5.924;2024-01-10T03:13:18;102312.63;;;0.72;50.84
73842;BME280;62184;52.006;5.924;2024-01-10T03:15:45;102316.94;;;0.70;50.19
73842;BME280;62184;52.006;5.924;2024-01-10T03:18:14;102314.44;;;0.73;51.00
73842;BME280;62184;52.006;5.924;2024-01-10T03:20:40;102310.72;;;0.68;50.64
73842;BME280;62184;52.006;5.924;2024-01-10T03:23:07;102308.09;;;0.68;50.96
73842;BME280;62184;52.006;5.924;2024-01-10T03:25:33;102303.03;;;0.72;51.04
73842;BME280;62184;52.006;5.924;2024-01-10T03:27:59;102309.13;;;0.71;50.91
73842;BME280;62184;52.006;5.924;2024-01-10T03:30:26;102303.03;;;0.72;51.25
73842;BME280;62184;52.006;5.924;2024-01-10T03:32:52;102299.38;;;0.69;50.98
73842;BME280;62184;52.006;5.924;2024-01-10T03:35:21;102303.78;;;0.70;51.26
73842;BME280;62184;52.006;5.924;2024-01-10T03:37:48;102301.00;;;0.65;50.72
73842;BME280;62184;52.006;5.924;2024-01-10T03:40:14;102298.16;;;0.61;50.82
73842;BME280;62184;52.006;5.924;2024-01-10T03:42:41;102299.22;;;0.64;50.81
73842;BME280;62184;52.006;5.924;2024-01-10T03:45:07;102301.00;;;0.65;51.33
73842;BME280;62184;52.006;5.924;2024-01-10T03:47:34;102301.78;;;0.63;50.77
73842;BME280;62184;52.006;5.924;2024-01-10T03:50:00;102295.53;;;0.61;51.06
73842;BME280;62184;52.006;5.924;2024-01-10T03:52:29;102292.81;;;0.58;51.16
73842;BME280;62184;52.006;5.924;2024-01-10T03:54:55;102295.44;;;0.58;51.33
73842;BME280;62184;52.006;5.924;2024-01-10T03:57:22;102298.84;;;0.55;51.07
73842;BME280;62184;52.006;5.924;2024-01-10T03:59:48;102292.69;;;0.55;51.06
73842;BME280;62184;52.006;5.924;2024-01-10T04:02:15;102292.69;;;0.55;51.25
73842;BME280;62184;52.006;5.924;2024-01-10T04:04:41;102289.94;;;0.51;50.36
73842;BME280;62184;52.006;5.924;2024-01-10T04:07:08;102296.09;;;0.52;50.79
73842;BME280;62184;52.006;5.924;2024-01-10T04:09:37;102295.19;;;0.51;50.83
73842;BME280;62184;52.006;5.924;2024-01-10T04:12:04;102301.34;;;0.52;50.69
73842;BME280;62184;52.006;5.924;2024-01-10T04:14:31;102289.91;;;0.50;50.85
73842;BME280;62184;52.006;5.924;2024-01-10T04:16:57;102291.34;;;0.43;50.65
73842;BME280;62184;52.006;5.924;2024-01-10T04:19:24;102286.16;;;0.45;51.01
73842;BME280;62184;52.006;5.924;2024-01-10T04:21:50;102292.31;;;0.45;50.99
73842;BME280;62184;52.006;5.924;2024-01-10T04:24:16;102281.88;;;0.47;50.87
73842;BME280;62184;52.006;5.924;2024-01-10T04:26:45;102290.78;;;0.50;51.22
73842;BME280;62184;52.006;5.924;2024-01-10T04:29:12;102297.81;;;0.51;51.12
73842;BME280;62184;52.006;5.924;2024-01-10T04:31:38;102286.38;;;0.49;50.81
73842;BME280;62184;52.006;5.924;2024-01-10T04:34:05;102286.38;;;0.49;51.11
73842;BME280;62184;52.006;5.924;2024-01-10T04:36:31;102293.34;;;0.49;51.06
73842;BME280;62184;52.006;5.924;2024-01-10T04:38:58;102283.75;;;0.49;50.58
73842;BME280;62184;52.006;5.924;2024-01-10T04:41:24;102280.16;;;0.47;50.75
73842;BME280;62184;52.006;5.924;2024-01-10T04:43:54;102281.81;;;0.45;50.75
73842;BME280;62184;52.006;5.924;2024-01-10T04:46:20;102276.31;;;0.39;50.60
73842;BME280;62184;52.006;5.924;2024-01-10T04:48:47;102273.69;;;0.39;50.62
73842;BME280;62184;52.006;5.924;2024-01-10T04:51:13;102269.22;;;0.37;50.51
73842;BME280;62184;52.006;5.924;2024-01-10T04:53:40;102269.97;;;0.34;50.51
73842;BME280;62184;52.006;5.924;2024-01-10T04:56:06;102255.97;;;0.34;50.42
73842;BME280;62184;52.006;5.924;2024-01-10T04:58:32;102261.03;;;0.29;50.41
73842;BME280;62184;52.006;5.924;2024-01-10T05:01:02;102263.59;;;0.28;50.68
73842;BME280;62184;52.006;5.924;2024-01-10T05:03:28;102257.25;;;0.23;50.21
73842;BME280;62184;52.006;5.924;2024-01-10T05:05:54;102255.47;;;0.22;49.81
73842;BME280;62184;52.006;5.924;2024-01-10T05:08:21;102262.59;;;0.24;50.29
73842;BME280;62184;52.006;5.924;2024-01-10T05:10:47;102252.25;;;0.29;49.89
73842;BME280;62184;52.006;5.924;2024-01-10T05:13:14;102260.31;;;0.33;50.02
73842;BME280;62184;52.006;5.924;2024-01-10T05:15:40;102249.00;;;0.36;49.76
73842;BME280;62184;52.006;5.924;2024-01-10T05:18:09;102246.69;;;0.43;50.59
73842;BME280;62184;52.006;5.924;2024-01-10T05:20:36;102250.94;;;0.40;49.92
73842;BME280;62184;52.006;5.924;2024-01-10T05:23:02;102245.75;;;0.41;50.09
73842;BME280;62184;52.006;5.924;2024-01-10T05:25:29;102246.69;;;0.43;49.95
73842;BME280;62184;52.006;5.924;2024-01-10T05:27:55;102250.03;;;0.39;49.74
73842;BME280;62184;52.006;5.924;2024-01-10T05:30:22;102246.38;;;0.36;49.74
73842;BME280;62184;52.006;5.924;2024-01-10T05:32:48;102247.47;;;0.41;50.09
73842;BME280;62184;52.006;5.924;2024-01-10T05:35:17;102250.94;;;0.40;50.38
73842;BME280;62184;52.006;5.924;2024-01-10T05:37:43;102253.72;;;0.44;50.53
73842;BME280;62184;52.006;5.924;2024-01-10T05:40:10;102264.38;;;0.47;50.40
73842;BME280;62184;52.006;5.924;2024-01-10T05:42:37;102254.63;;;0.45;50.08
73842;BME280;62184;52.006;5.924;2024-01-10T05:45:05;102249.50;;;0.48;50.18
73842;BME280;62184;52.006;5.924;2024-01-10T05:47:32;102246.66;;;0.42;49.04
73842;BME280;62184;52.006;5.924;2024-01-10T05:49:59;102255.66;;;0.48;50.10
73842;BME280;62184;52.006;5.924;2024-01-10T05:52:30;102261.00;;;0.51;50.04
73842;BME280;62184;52.006;5.924;2024-01-10T05:54:56;102257.69;;;0.56;50.46
73842;BME280;62184;52.006;5.924;2024-01-10T05:57:23;102265.44;;;0.52;49.71
73842;BME280;62184;52.006;5.924;2024-01-10T05:59:49;102261.00;;;0.51;49.80
73842;BME280;62184;52.006;5.924;2024-01-10T06:02:16;102258.44;;;0.53;49.94
73842;BME280;62184;52.006;5.924;2024-01-10T06:04:42;102255.88;;;0.55;49.89
73842;BME280;62184;52.006;5.924;2024-01-10T06:07:09;102256.13;;;0.61;50.36
73842;BME280;62184;52.006;5.924;2024-01-10T06:09:38;102252.66;;;0.62;50.33
73842;BME280;62184;52.006;5.924;2024-01-10T06:12:06;102249.03;;;0.58;49.36
73842;BME280;62184;52.006;5.924;2024-01-10T06:14:42;102262.28;;;0.61;50.38
73842;BME280;62184;52.006;5.924;2024-01-10T06:17:08;102257.91;;;0.62;49.94
73842;BME280;62184;52.006;5.924;2024-01-10T06:19:35;102247.41;;;0.62;50.09
73842;BME280;62184;52.006;5.924;2024-01-10T06:22:01;102241.84;;;0.54;49.12
73842;BME280;62184;52.006;5.924;2024-01-10T06:24:28;102243.56;;;0.53;49.85
73842;BME280;62184;52.006;5.924;2024-01-10T06:26:57;102246.28;;;0.55;50.06
73842;BME280;62184;52.006;5.924;2024-01-10T06:29:23;102252.44;;;0.56;49.88
73842;BME280;62184;52.006;5.924;2024-01-10T06:31:50;102239.28;;;0.56;49.90
73842;BME280;62184;52.006;5.924;2024-01-10T06:34:16;102241.16;;;0.58;50.41
73842;BME280;62184;52.006;5.924;2024-01-10T06:36:42;102249.78;;;0.56;49.61
73842;BME280;62184;52.006;5.924;2024-01-10T06:39:09;102240.13;;;0.55;49.06
73842;BME280;62184;52.006;5.924;2024-01-10T06:41:35;102236.78;;;0.59;50.06
73842;BME280;62184;52.006;5.924;2024-01-10T06:44:04;102243.72;;;0.57;49.57
73842;BME280;62184;52.006;5.924;2024-01-10T06:46:31;102249.97;;;0.60;50.05
73842;BME280;62184;52.006;5.924;2024-01-10T06:48:57;102256.03;;;0.59;50.22
73842;BME280;62184;52.006;5.924;2024-01-10T06:51:24;102247.41;;;0.62;49.87
73842;BME280;62184;52.006;5.924;2024-01-10T06:53:50;102250.84;;;0.61;49.50
73842;BME280;62184;52.006;5.924;2024-01-10T06:56:17;102242.03;;;0.59;49.59
73842;BME280;62184;52.006;5.924;2024-01-10T06:58:43;102233.19;;;0.57;49.64
73842;BME280;62184;52.006;5.924;2024-01-10T07:01:15;102243.66;;;0.55;49.68
73842;BME280;62184;52.006;5.924;2024-01-10T07:03:42;102249.66;;;0.52;49.14
73842;BME280;62184;52.006;5.924;2024-01-10T07:06:08;102248.78;;;0.52;49.80
73842;BME280;62184;52.006;5.924;2024-01-10T07:08:35;102243.47;;;0.50;49.60
73842;BME280;62184;52.006;5.924;2024-01-10T07:11:01;102240.59;;;0.44;49.19
73842;BME280;62184;52.006;5.924;2024-01-10T07:13:27;102249.38;;;0.45;49.81
73842;BME280;62184;52.006;5.924;2024-01-10T07:15:54;102259.13;;;0.47;49.72
73842;BME280;62184;52.006;5.924;2024-01-10T07:18:23;102252.97;;;0.47;49.82
73842;BME280;62184;52.006;5.924;2024-01-10T07:20:49;102254.75;;;0.48;49.84
73842;BME280;62184;52.006;5.924;2024-01-10T07:23:16;102260.03;;;0.48;49.54
73842;BME280;62184;52.006;5.924;2024-01-10T07:25:42;102256.50;;;0.47;49.63
73842;BME280;62184;52.006;5.924;2024-01-10T07:28:08;102250.41;;;0.48;49.37
73842;BME280;62184;52.006;5.924;2024-01-10T07:30:35;102250.28;;;0.45;49.58
73842;BME280;62184;52.006;5.924;2024-01-10T07:33:01;102253.88;;;0.47;49.71
73842;BME280;62184;52.006;5.924;2024-01-10T07:35:30;102259.13;;;0.47;49.49
73842;BME280;62184;52.006;5.924;2024-01-10T07:37:57;102259.00;;;0.44;49.75
73842;BME280;62184;52.006;5.924;2024-01-10T07:40:23;102269.78;;;0.50;49.75
73842;BME280;62184;52.006;5.924;2024-01-10T07:42:50;102260.97;;;0.50;49.82
73842;BME280;62184;52.006;5.924;2024-01-10T07:45:16;102261.69;;;0.46;49.70
73842;BME280;62184;52.006;5.924;2024-01-10T07:47:42;102254.69;;;0.46;49.93
73842;BME280;62184;52.006;5.924;2024-01-10T07:50:10;102261.75;;;0.47;49.52
73842;BME280;62184;52.006;5.924;2024-01-10T07:52:39;102273.31;;;0.52;49.54
73842;BME280;62184;52.006;5.924;2024-01-10T07:55:07;102261.22;;;0.56;50.00
73842;BME280;62184;52.006;5.924;2024-01-10T07:57:34;102262.16;;;0.58;49.62
73842;BME280;62184;52.006;5.924;2024-01-10T08:00:02;102278.16;;;0.64;49.68
73842;BME280;62184;52.006;5.924;2024-01-10T08:02:29;102272.19;;;0.68;49.62
73842;BME280;62184;52.006;5.924;2024-01-10T08:04:56;102282.13;;;0.75;49.70
73842;BME280;62184;52.006;5.924;2024-01-10T08:07:22;102293.63;;;0.79;49.28
73842;BME280;62184;52.006;5.924;2024-01-10T08:09:51;102283.25;;;0.82;49.36
73842;BME280;62184;52.006;5.924;2024-01-10T08:12:18;102287.88;;;0.89;49.18
73842;BME280;62184;52.006;5.924;2024-01-10T08:14:44;102281.94;;;0.95;49.46
73842;BME280;62184;52.006;5.924;2024-01-10T08:17:10;102291.03;;;1.03;49.43
73842;BME280;62184;52.006;5.924;2024-01-10T08:19:37;102278.94;;;1.08;49.38
73842;BME280;62184;52.006;5.924;2024-01-10T08:22:04;102279.94;;;1.11;49.61
73842;BME280;62184;52.006;5.924;2024-01-10T08:24:30;102283.59;;;1.15;49.57
73842;BME280;62184;52.006;5.924;2024-01-10T08:27:00;102272.28;;;1.17;49.35
73842;BME280;62184;52.006;5.924;2024-01-10T08:29:26;102271.53;;;1.21;49.53
73842;BME280;62184;52.006;5.924;2024-01-10T08:31:52;102279.50;;;1.23;48.99
73842;BME280;62184;52.006;5.924;2024-01-10T08:34:19;102270.84;;;1.25;49.25
73842;BME280;62184;52.006;5.924;2024-01-10T08:36:45;102263.97;;;1.31;49.49
73842;BME280;62184;52.006;5.924;2024-01-10T08:39:12;102270.22;;;1.33;48.99
73842;BME280;62184;52.006;5.924;2024-01-10T08:41:38;102271.19;;;1.36;48.58
73842;BME280;62184;52.006;5.924;2024-01-10T08:44:07;102256.34;;;1.38;48.57
73842;BME280;62184;52.006;5.924;2024-01-10T08:46:33;102262.66;;;1.43;48.62
73842;BME280;62184;52.006;5.924;2024-01-10T08:49:00;102259.38;;;1.49;49.25
73842;BME280;62184;52.006;5.924;2024-01-10T08:51:26;102263.63;;;1.45;47.45
73842;BME280;62184;52.006;5.924;2024-01-10T08:53:52;102263.78;;;1.50;49.39
73842;BME280;62184;52.006;5.924;2024-01-10T08:56:19;102255.84;;;1.48;50.42
73842;BME280;62184;52.006;5.924;2024-01-10T08:58:45;102262.16;;;1.53;51.70
73842;BME280;62184;52.006;5.924;2024-01-10T09:01:14;102259.44;;;1.50;51.51
73842;BME280;62184;52.006;5.924;2024-01-10T09:03:41;102263.03;;;1.54;52.08
73842;BME280;62184;52.006;5.924;2024-01-10T09:06:08;102255.16;;;1.54;50.78
73842;BME280;62184;52.006;5.924;2024-01-10T09:08:34;102266.06;;;1.64;51.38
73842;BME280;62184;52.006;5.924;2024-01-10T09:11:00;102257.47;;;1.70;50.68
73842;BME280;62184;52.006;5.924;2024-01-10T09:13:27;102257.69;;;1.76;50.78
73842;BME280;62184;52.006;5.924;2024-01-10T09:15:53;102259.56;;;1.80;50.41
73842;BME280;62184;52.006;5.924;2024-01-10T09:18:22;102262.41;;;1.86;50.94
73842;BME280;62184;52.006;5.924;2024-01-10T09:20:49;102271.44;;;1.94;51.50
73842;BME280;62184;52.006;5.924;2024-01-10T09:23:15;102266.19;;;1.94;52.74
73842;BME280;62184;52.006;5.924;2024-01-10T09:25:42;102268.69;;;1.90;53.82
73842;BME280;62184;52.006;5.924;2024-01-10T09:28:08;102265.19;;;1.91;55.50
73842;BME280;62184;52.006;5.924;2024-01-10T09:30:34;102275.94;;;1.97;56.80
73842;BME280;62184;52.006;5.924;2024-01-10T09:33:01;102273.53;;;2.04;58.83
73842;BME280;62184;52.006;5.924;2024-01-10T09:35:30;102275.44;;;2.09;61.24
73842;BME280;62184;52.006;5.924;2024-01-10T09:37:56;102267.69;;;2.13;61.98
73842;BME280;62184;52.006;5.924;2024-01-10T09:40:23;102267.84;;;2.18;62.16
73842;BME280;62184;52.006;5.924;2024-01-10T09:42:49;102268.94;;;2.24;63.44
73842;BME280;62184;52.006;5.924;2024-01-10T09:45:16;102271.00;;;2.34;63.72
73842;BME280;62184;52.006;5.924;2024-01-10T09:47:46;102270.34;;;2.41;64.35
73842;BME280;62184;52.006;5.924;2024-01-10T09:50:18;102277.56;;;2.47;65.24
73842;BME280;62184;52.006;5.924;2024-01-10T09:52:51;102276.03;;;2.55;65.24
73842;BME280;62184;52.006;5.924;2024-01-10T09:55:21;102276.44;;;2.69;64.39
73842;BME280;62184;52.006;5.924;2024-01-10T09:57:48;102270.72;;;2.82;63.74
73842;BME280;62184;52.006;5.924;2024-01-10T10:00:16;102273.13;;;3.04;64.21
73842;BME280;62184;52.006;5.924;2024-01-10T10:02:43;102264.34;;;3.37;64.50
73842;BME280;62184;52.006;5.924;2024-01-10T10:05:14;102266.09;;;3.68;65.17
73842;BME280;62184;52.006;5.924;2024-01-10T10:07:47;102269.50;;;3.98;65.73
73842;BME280;62184;52.006;5.924;2024-01-10T10:10:16;102264.00;;;4.25;66.14
73842;BME280;62184;52.006;5.924;2024-01-10T10:12:44;102265.44;;;4.50;65.29
73842;BME280;62184;52.006;5.924;2024-01-10T10:15:13;102261.28;;;4.61;64.90
73842;BME280;62184;52.006;5.924;2024-01-10T10:17:42;102255.97;;;4.61;64.73
73842;BME280;62184;52.006;5.924;2024-01-10T10:20:11;102264.50;;;4.48;64.16
73842;BME280;62184;52.006;5.924;2024-01-10T10:22:39;102261.69;;;4.40;66.24
73842;BME280;62184;52.006;5.924;2024-01-10T10:25:09;102254.53;;;4.34;65.73
73842;BME280;62184;52.006;5.924;2024-01-10T10:27:36;102254.34;;;4.27;63.20
73842;BME280;62184;52.006;5.924;2024-01-10T10:30:03;102248.28;;;4.32;64.73
73842;BME280;62184;52.006;5.924;2024-01-10T10:32:30;102249.22;;;4.34;64.08
73842;BME280;62184;52.006;5.924;2024-01-10T10:34:57;102259.66;;;4.28;65.04
73842;BME280;62184;52.006;5.924;2024-01-10T10:37:23;102250.09;;;4.33;64.51
73842;BME280;62184;52.006;5.924;2024-01-10T10:39:49;102244.00;;;4.38;64.86
73842;BME280;62184;52.006;5.924;2024-01-10T10:42:19;102240.78;;;4.51;63.59
73842;BME280;62184;52.006;5.924;2024-01-10T10:44:49;102225.97;;;4.59;64.30
73842;BME280;62184;52.006;5.924;2024-01-10T10:47:17;102242.91;;;4.67;65.05
73842;BME280;62184;52.006;5.924;2024-01-10T10:49:52;102238.47;;;4.66;65.05
73842;BME280;62184;52.006;5.924;2024-01-10T10:52:19;102234.75;;;4.58;65.26
73842;BME280;62184;52.006;5.924;2024-01-10T10:54:49;102227.72;;;4.58;65.16
73842;BME280;62184;52.006;5.924;2024-01-10T10:57:20;102235.88;;;4.67;65.63
73842;BME280;62184;52.006;5.924;2024-01-10T10:59:49;102245.63;;;4.71;66.50
73842;BME280;62184;52.006;5.924;2024-01-10T11:02:21;102246.66;;;4.77;65.01
73842;BME280;62184;52.006;5.924;2024-01-10T11:04:48;102235.31;;;4.84;63.92
73842;BME280;62184;52.006;5.924;2024-01-10T11:07:15;102241.75;;;4.93;65.24
73842;BME280;62184;52.006;5.924;2024-01-10T11:09:43;102244.38;;;4.93;64.48
73842;BME280;62184;52.006;5.924;2024-01-10T11:12:27;102246.16;;;4.94;65.96
73842;BME280;62184;52.006;5.924;2024-01-10T11:15:29;102253.38;;;5.03;67.19
73842;BME280;62184;52.006;5.924;2024-01-10T11:18:44;102254.28;;;5.02;64.45
73842;BME280;62184;52.006;5.924;2024-01-10T11:21:33;102242.97;;;5.11;65.48
73842;BME280;62184;52.006;5.924;2024-01-10T11:24:07;102227.84;;;5.05;65.66
73842;BME280;62184;52.006;5.924;2024-01-10T11:26:37;102229.75;;;5.12;66.55
73842;BME280;62184;52.006;5.924;2024-01-10T11:29:07;102223.44;;;5.05;66.40
73842;BME280;62184;52.006;5.924;2024-01-10T11:31:35;102219.03;;;5.06;66.57
73842;BME280;62184;52.006;5.924;2024-01-10T11:34:01;102220.91;;;5.10;66.88
73842;BME280;62184;52.006;5.924;2024-01-10T11:36:28;102216.50;;;5.11;66.77
73842;BME280;62184;52.006;5.924;2024-01-10T11:38:57;102206.94;;;5.19;65.59
73842;BME280;62184;52.006;5.924;2024-01-10T11:41:26;102211.31;;;5.17;66.42
73842;BME280;62184;52.006;5.924;2024-01-10T11:47:17;102209.81;;;5.31;66.24
73842;BME280;62184;52.006;5.924;2024-01-10T11:49:56;102208.88;;;5.29;65.48
73842;BME280;62184;52.006;5.924;2024-01-10T11:52:23;102210.81;;;5.37;66.16
73842;BME280;62184;52.006;5.924;2024-01-10T11:54:58;102210.84;;;5.39;66.38
73842;BME280;62184;52.006;5.924;2024-01-10T11:57:26;102208.16;;;5.36;66.09
73842;BME280;62184;52.006;5.924;2024-01-10T11:59:56;102207.22;;;5.34;65.94
73842;BME280;62184;52.006;5.924;2024-01-10T12:02:23;102203.50;;;5.24;65.19
73842;BME280;62184;52.006;5.924;2024-01-10T12:04:50;102212.44;;;5.31;64.67
73842;BME280;62184;52.006;5.924;2024-01-10T12:07:17;102200.19;;;5.36;65.34
73842;BME280;62184;52.006;5.924;2024-01-10T12:09:45;102194.09;;;5.40;65.94
73842;BME280;62184;52.006;5.924;2024-01-10T12:12:12;102194.00;;;5.37;64.21
73842;BME280;62184;52.006;5.924;2024-01-10T12:14:38;102192.38;;;5.43;64.09
73842;BME280;62184;52.006;5.924;2024-01-10T12:17:08;102196.03;;;5.50;66.40
73842;BME280;62184;52.006;5.924;2024-01-10T12:19:34;102192.47;;;5.48;66.12
73842;BME280;62184;52.006;5.924;2024-01-10T12:22:01;102192.34;;;5.42;65.71
73842;BME280;62184;52.006;5.924;2024-01-10T12:24:28;102196.97;;;5.54;64.46
73842;BME280;62184;52.006;5.924;2024-01-10T12:26:55;102189.09;;;5.58;65.42
73842;BME280;62184;52.006;5.924;2024-01-10T12:29:22;102180.25;;;5.58;66.23
73842;BME280;62184;52.006;5.924;2024-01-10T12:31:48;102189.19;;;5.64;63.85
73842;BME280;62184;52.006;5.924;2024-01-10T12:34:17;102195.50;;;5.71;64.98
73842;BME280;62184;52.006;5.924;2024-01-10T12:36:44;102193.78;;;5.74;64.47
73842;BME280;62184;52.006;5.924;2024-01-10T12:39:11;102194.63;;;5.72;64.52
73842;BME280;62184;52.006;5.924;2024-01-10T12:41:38;102197.44;;;5.81;63.67
73842;BME280;62184;52.006;5.924;2024-01-10T12:44:06;102200.22;;;5.89;62.67
73842;BME280;62184;52.006;5.924;2024-01-10T12:46:33;102198.63;;;6.00;63.41
73842;BME280;62184;52.006;5.924;2024-01-10T12:49:00;102193.44;;;6.07;62.16
73842;BME280;62184;52.006;5.924;2024-01-10T12:51:31;102182.84;;;6.09;63.20
73842;BME280;62184;52.006;5.924;2024-01-10T12:53:59;102187.19;;;6.02;63.41
73842;BME280;62184;52.006;5.924;2024-01-10T12:56:26;102194.28;;;6.05;64.10
73842;BME280;62184;52.006;5.924;2024-01-10T12:58:53;102179.28;;;6.07;65.07
73842;BME280;62184;52.006;5.924;2024-01-10T13:01:21;102182.69;;;5.98;64.57
73842;BME280;62184;52.006;5.924;2024-01-10T13:03:48;102185.34;;;5.98;65.45
73842;BME280;62184;52.006;5.924;2024-01-10T13:06:14;102193.13;;;5.88;64.15